الصفحة الرئيسية
METAR-TAF:

METAR-TAF

مطار :

مطار هلسنكي فانتا

هلسنكي, فنلندا

دائرة عرض: 60-19N, خط طول: 024-58E, ارتفاع: 51 متر

مراقبة الطقس الحالي

تاريخ ووقت الإصدار 25 دقيقة قبل الساعة 11:20UTC
ريح 10 عقدة من الشمال/الشمال الغربي, الاتجاه يتراوح بين الشمال الغربي و الشمال/الشمال الشرقي
درجة الحرارة 20°درجة مئوية
الرطوبة 26%
ضغط 1029 hPa
الرؤية 10 كم أو أكثر
الغيوم لا تقل 1500 م ولا وجود لمزنة ركامية السحاب الأسود

METAR: EFHK 271120Z 34010KT 310V020 CAVOK 20/M00 Q1029 NOSIG

زمن: 14:45 (11:45 UTC)

توقعات

تاريخ ووقت الإصدار 11 دقيقة قبل الساعة 11:34UTC
التوقعات صالحة من27 الساعة 12 UTC إلى 28 الساعة 12 UTC
ريح 9 عقدة من الشمال
الرؤية 10 كم أو أكثر
الغيوم لا تقل 1500 م ولا وجود لمزنة ركامية السحاب الأسود

TAF: EFHK 271134Z 2712/2812 01009KT CAVOK

أرصاد الطقس والتوقعات من أكثر من 4000 مطار (تقارير الطقس للمطار METAR والتنبؤ بالطقس بالمطارTAF).

المحطات المتاحة هي النقط الصفراء والحمراء على الخريطة.

حرك المؤشر فوق النقطة لمعرفة اسم المحطة.

ثم انقر لمعرفة أرصاد وتوقعات الطقس.

لتغيير الخارطة: اضغط على الأزرار الخضراء مع رمز الصليب الأسود للتكبير. على الزر الأخضر مع شرطة للتصغير، أو على الأسهم الخضراء للخرائط المجاورة.


METAR-TAF: